Time;durP1;ratioP1;P1;durP2;ratioP2;P2;SDS_P1;SDS_P2;PMS_P1;PMS_P2;Temp;Humidity;BMP_temperature;BMP_pressure;BME280_temperature;BME280_humidity;BME280_pressure;Samples;Min_cycle;Max_cycle;Signal;HPM_P1;HPM_P2
2021/03/10 00:02:57;;;;;;;30.00;12.47;;;;;;;;;;6212117;23;20219;-92
2021/03/10 00:06:01;;;;;;;25.10;11.57;;;;;;;;;;6210541;23;20210;-90
2021/03/10 00:09:06;;;;;;;26.73;11.43;;;;;;;;;;6210432;23;20228;-91
2021/03/10 00:12:11;;;;;;;29.07;12.30;;;;;;;;;;6208969;23;20170;-88
2021/03/10 00:15:16;;;;;;;30.87;12.77;;;;;;;;;;6209909;23;20187;-92
2021/03/10 00:18:22;;;;;;;44.37;13.67;;;;;;;;;;6210397;23;20195;-92
2021/03/10 00:21:27;;;;;;;26.73;12.00;;;;;;;;;;6210837;23;20170;-92
2021/03/10 00:24:31;;;;;;;26.33;11.13;;;;;;;;;;6210034;23;20542;-90
2021/03/10 00:27:36;;;;;;;26.23;11.37;;;;;;;;;;6209600;23;20494;-91
2021/03/10 00:30:40;;;;;;;29.90;13.10;;;;;;;;;;6209093;23;20163;-90
2021/03/10 00:33:46;;;;;;;28.90;12.03;;;;;;;;;;6212040;23;20222;-89
2021/03/10 00:36:50;;;;;;;28.93;13.57;;;;;;;;;;6228251;23;20168;-92
2021/03/10 00:39:56;;;;;;;25.77;11.97;;;;;;;;;;6210987;23;20190;-90
2021/03/10 00:43:00;;;;;;;32.07;12.57;;;;;;;;;;6209278;23;20540;-92
2021/03/10 00:46:05;;;;;;;27.93;13.17;;;;;;;;;;6209992;23;20681;-91
2021/03/10 00:49:10;;;;;;;28.97;12.83;;;;;;;;;;6208344;23;20194;-89
2021/03/10 00:52:15;;;;;;;28.53;13.43;;;;;;;;;;6210798;23;20190;-93
2021/03/10 00:55:19;;;;;;;34.27;14.07;;;;;;;;;;6210525;23;20530;-92
2021/03/10 00:58:24;;;;;;;30.63;12.63;;;;;;;;;;6209320;23;20188;-90
2021/03/10 01:01:28;;;;;;;26.90;12.37;;;;;;;;;;6213709;23;20186;-91
2021/03/10 01:04:34;;;;;;;34.43;12.93;;;;;;;;;;6226652;22;20218;-89
2021/03/10 01:07:39;;;;;;;29.87;13.27;;;;;;;;;;6227802;23;20170;-90
2021/03/10 01:10:46;;;;;;;33.83;13.67;;;;;;;;;;6226966;22;20162;-92
2021/03/10 01:13:50;;;;;;;31.60;13.90;;;;;;;;;;6225665;23;20241;-91
2021/03/10 01:16:55;;;;;;;28.83;13.07;;;;;;;;;;6225781;23;20311;-89
2021/03/10 01:20:01;;;;;;;30.50;13.73;;;;;;;;;;6227800;23;20171;-90
2021/03/10 01:23:06;;;;;;;31.23;13.47;;;;;;;;;;6224595;23;20187;-90
2021/03/10 01:26:10;;;;;;;29.93;12.97;;;;;;;;;;6226592;23;20150;-91
2021/03/10 01:29:15;;;;;;;31.30;14.07;;;;;;;;;;6227149;23;20190;-90
2021/03/10 01:32:20;;;;;;;31.87;13.93;;;;;;;;;;6227451;23;20172;-92
2021/03/10 01:35:26;;;;;;;35.63;14.30;;;;;;;;;;6226760;22;20242;-91
2021/03/10 01:38:30;;;;;;;33.53;14.33;;;;;;;;;;6227988;23;20235;-90
2021/03/10 01:41:36;;;;;;;31.37;13.80;;;;;;;;;;6226958;23;20186;-90
2021/03/10 01:44:41;;;;;;;33.47;13.93;;;;;;;;;;6227581;23;20202;-91
2021/03/10 01:47:46;;;;;;;35.53;14.37;;;;;;;;;;6225575;23;20630;-90
2021/03/10 01:50:52;;;;;;;32.37;13.57;;;;;;;;;;6225844;23;20662;-92
2021/03/10 01:53:57;;;;;;;31.07;13.93;;;;;;;;;;6225130;23;20195;-91
2021/03/10 01:57:02;;;;;;;32.87;14.50;;;;;;;;;;6225113;23;20174;-90
2021/03/10 02:00:08;;;;;;;36.47;14.97;;;;;;;;;;6226658;23;20155;-90
2021/03/10 02:03:17;;;;;;;33.50;14.07;;;;;;;;;;6227252;23;20188;-92
2021/03/10 02:06:31;;;;;;;37.47;14.07;;;;;;;;;;6227111;23;20622;-91
2021/03/10 02:09:39;;;;;;;34.90;14.17;;;;;;;;;;6227154;23;20267;-90
2021/03/10 02:12:46;;;;;;;29.97;13.80;;;;;;;;;;6225665;23;20176;-90
2021/03/10 02:15:54;;;;;;;35.77;15.23;;;;;;;;;;6228317;23;20195;-91
2021/03/10 02:19:01;;;;;;;36.30;14.03;;;;;;;;;;6227139;23;20178;-90
2021/03/10 02:22:15;;;;;;;36.40;14.27;;;;;;;;;;6227872;23;20151;-92
2021/03/10 02:25:27;;;;;;;37.57;14.50;;;;;;;;;;6225008;23;20184;-91
2021/03/10 02:28:34;;;;;;;39.47;15.20;;;;;;;;;;6225165;23;20615;-90
2021/03/10 02:31:40;;;;;;;38.97;15.37;;;;;;;;;;6226235;23;20237;-92
2021/03/10 02:34:45;;;;;;;37.07;15.07;;;;;;;;;;6225538;23;20517;-92
2021/03/10 02:37:51;;;;;;;34.17;14.57;;;;;;;;;;6226703;23;20179;-90
2021/03/10 02:40:56;;;;;;;33.23;14.63;;;;;;;;;;6225940;23;20246;-90
2021/03/10 02:44:03;;;;;;;36.13;15.43;;;;;;;;;;6225856;22;20194;-90
2021/03/10 02:47:07;;;;;;;35.67;14.83;;;;;;;;;;6226217;22;20167;-91
2021/03/10 02:50:13;;;;;;;32.07;14.30;;;;;;;;;;6225654;23;20163;-90
2021/03/10 02:53:18;;;;;;;33.87;14.73;;;;;;;;;;6225880;23;20248;-90
2021/03/10 02:56:22;;;;;;;32.27;14.50;;;;;;;;;;6224764;23;20174;-91
2021/03/10 02:59:29;;;;;;;35.73;14.80;;;;;;;;;;6225859;23;20195;-92
2021/03/10 03:02:33;;;;;;;34.17;15.17;;;;;;;;;;6225320;23;20194;-90
2021/03/10 03:05:37;;;;;;;40.00;16.07;;;;;;;;;;6226885;23;20151;-92
2021/03/10 03:08:42;;;;;;;38.37;16.40;;;;;;;;;;6229030;22;20673;-89
2021/03/10 03:11:47;;;;;;;36.80;16.00;;;;;;;;;;6228074;23;20670;-90
2021/03/10 03:14:53;;;;;;;37.67;16.40;;;;;;;;;;6227372;23;20230;-91
2021/03/10 03:17:58;;;;;;;38.23;15.77;;;;;;;;;;6229553;22;20147;-92
2021/03/10 03:21:02;;;;;;;39.07;17.03;;;;;;;;;;6227591;23;20689;-90
2021/03/10 03:24:07;;;;;;;38.40;16.93;;;;;;;;;;6228824;23;20298;-92
2021/03/10 03:27:25;;;;;;;41.93;16.63;;;;;;;;;;6227960;23;20179;-90
2021/03/10 03:30:32;;;;;;;36.23;16.43;;;;;;;;;;6228034;23;20271;-90
2021/03/10 03:33:37;;;;;;;38.67;16.47;;;;;;;;;;6228850;23;20499;-91
2021/03/10 03:36:42;;;;;;;40.47;17.60;;;;;;;;;;6226397;23;20167;-93
2021/03/10 03:39:46;;;;;;;44.17;17.70;;;;;;;;;;6227578;23;20171;-92
2021/03/10 03:42:51;;;;;;;42.83;17.70;;;;;;;;;;6227886;23;20167;-90
2021/03/10 03:45:56;;;;;;;39.27;17.70;;;;;;;;;;6228246;22;20174;-90
2021/03/10 03:49:02;;;;;;;39.67;18.50;;;;;;;;;;6225697;23;20282;-92
2021/03/10 03:52:06;;;;;;;45.57;19.53;;;;;;;;;;6226298;23;20170;-92
2021/03/10 03:55:11;;;;;;;45.80;19.53;;;;;;;;;;6227325;23;20315;-89
2021/03/10 03:58:15;;;;;;;44.40;19.20;;;;;;;;;;6227052;23;20175;-89
2021/03/10 04:01:21;;;;;;;39.60;18.83;;;;;;;;;;6226988;23;20241;-89
2021/03/10 04:04:25;;;;;;;44.80;20.13;;;;;;;;;;6226216;23;20199;-89
2021/03/10 04:07:30;;;;;;;47.10;20.20;;;;;;;;;;6226331;22;20167;-89
2021/03/10 04:10:35;;;;;;;49.10;20.47;;;;;;;;;;6227099;23;20195;-90
2021/03/10 04:13:40;;;;;;;45.00;19.97;;;;;;;;;;6227539;23;20212;-90
2021/03/10 04:16:45;;;;;;;49.03;20.33;;;;;;;;;;6227538;23;20199;-90
2021/03/10 04:19:50;;;;;;;45.47;20.43;;;;;;;;;;6226958;22;20214;-91
2021/03/10 04:22:56;;;;;;;42.20;20.03;;;;;;;;;;6227183;22;20179;-89
2021/03/10 04:26:01;;;;;;;48.53;20.60;;;;;;;;;;6227949;22;20271;-91
2021/03/10 04:29:06;;;;;;;47.50;20.83;;;;;;;;;;6226526;22;20210;-90
2021/03/10 04:32:11;;;;;;;48.27;21.03;;;;;;;;;;6229774;23;20179;-91
2021/03/10 04:35:16;;;;;;;45.70;20.30;;;;;;;;;;6228305;22;20203;-91
2021/03/10 04:38:21;;;;;;;53.83;20.63;;;;;;;;;;6227472;22;20167;-89
2021/03/10 04:41:25;;;;;;;51.77;20.83;;;;;;;;;;6229251;22;20236;-93
2021/03/10 04:44:30;;;;;;;48.27;20.43;;;;;;;;;;6228154;23;20495;-92
2021/03/10 04:47:36;;;;;;;48.30;20.03;;;;;;;;;;6228906;23;20170;-89
2021/03/10 04:50:40;;;;;;;50.70;19.57;;;;;;;;;;6230847;22;20152;-91
2021/03/10 04:53:46;;;;;;;50.87;21.33;;;;;;;;;;6228368;23;20161;-91
2021/03/10 04:56:50;;;;;;;53.83;20.93;;;;;;;;;;6227587;23;20170;-91
2021/03/10 04:59:55;;;;;;;52.80;21.93;;;;;;;;;;6227690;23;20171;-89
2021/03/10 05:03:03;;;;;;;47.93;19.97;;;;;;;;;;6228107;23;20175;-89
2021/03/10 05:06:07;;;;;;;50.07;21.10;;;;;;;;;;6226643;23;20151;-91
2021/03/10 05:09:12;;;;;;;53.17;21.73;;;;;;;;;;6228414;23;20246;-90
2021/03/10 05:12:16;;;;;;;49.70;22.10;;;;;;;;;;6227884;23;20218;-91
2021/03/10 05:15:21;;;;;;;46.37;20.73;;;;;;;;;;6226947;23;20698;-89
2021/03/10 05:18:26;;;;;;;46.93;21.03;;;;;;;;;;6227393;22;20313;-89
2021/03/10 05:21:30;;;;;;;54.07;22.80;;;;;;;;;;6226044;23;20622;-89
2021/03/10 05:24:35;;;;;;;52.17;22.13;;;;;;;;;;6226722;22;20190;-92
2021/03/10 05:27:40;;;;;;;52.83;21.53;;;;;;;;;;6227757;23;20171;-92
2021/03/10 05:30:47;;;;;;;54.73;22.27;;;;;;;;;;6226008;23;20223;-89
2021/03/10 05:33:52;;;;;;;51.87;21.00;;;;;;;;;;6229524;23;20213;-90
2021/03/10 05:36:57;;;;;;;47.03;20.27;;;;;;;;;;6226424;23;20167;-88
2021/03/10 05:40:02;;;;;;;52.37;21.53;;;;;;;;;;6228353;23;20178;-90
2021/03/10 05:43:07;;;;;;;52.17;21.57;;;;;;;;;;6227725;23;20187;-89
2021/03/10 05:46:12;;;;;;;49.93;22.00;;;;;;;;;;6226900;23;20166;-91
2021/03/10 05:49:18;;;;;;;49.90;21.97;;;;;;;;;;6225586;23;20224;-91
2021/03/10 05:52:23;;;;;;;53.60;22.47;;;;;;;;;;6226740;23;20226;-91
2021/03/10 05:55:27;;;;;;;53.53;22.70;;;;;;;;;;6226631;23;20262;-90
2021/03/10 05:58:32;;;;;;;60.77;23.97;;;;;;;;;;6228608;22;20151;-90
2021/03/10 06:01:36;;;;;;;56.60;22.23;;;;;;;;;;6226120;23;20190;-90
2021/03/10 06:04:43;;;;;;;53.20;22.13;;;;;;;;;;6228838;23;20143;-89
2021/03/10 06:07:47;;;;;;;56.63;22.90;;;;;;;;;;6226550;23;20235;-90
2021/03/10 06:10:52;;;;;;;56.30;23.53;;;;;;;;;;6229062;23;20175;-90
2021/03/10 06:13:57;;;;;;;51.80;22.27;;;;;;;;;;6228462;23;20242;-91
2021/03/10 06:17:02;;;;;;;54.70;22.47;;;;;;;;;;6228377;23;20547;-90
2021/03/10 06:20:09;;;;;;;53.87;21.80;;;;;;;;;;6230471;22;20313;-90
2021/03/10 06:23:18;;;;;;;52.87;22.90;;;;;;;;;;6237428;22;20183;-91
2021/03/10 06:26:53;;;;;;;53.70;21.97;;;;;;;;;;6228558;23;20172;-90
2021/03/10 15:14:06;;;;;;;34.20;15.25;;;;;;;;;;6175555;23;20176;-88
2021/03/10 15:17:11;;;;;;;24.88;10.23;;;;;;;;;;6153918;23;20192;-91
2021/03/10 15:20:16;;;;;;;20.60;10.18;;;;;;;;;;6154178;23;20252;-89
2021/03/10 15:23:21;;;;;;;23.60;10.27;;;;;;;;;;6151740;23;20507;-89
2021/03/10 15:26:26;;;;;;;43.72;11.35;;;;;;;;;;6152584;23;20176;-89
2021/03/10 15:29:32;;;;;;;24.55;9.98;;;;;;;;;;6153908;23;20229;-88
2021/03/10 15:32:37;;;;;;;28.85;11.35;;;;;;;;;;6155015;23;20193;-90
2021/03/10 15:35:41;;;;;;;23.23;10.70;;;;;;;;;;6156575;23;20264;-91
2021/03/10 15:38:46;;;;;;;24.25;10.45;;;;;;;;;;6156658;23;20169;-92
2021/03/10 15:41:51;;;;;;;24.73;10.85;;;;;;;;;;6155655;23;20220;-91
2021/03/10 15:44:57;;;;;;;34.63;10.68;;;;;;;;;;6154830;23;20177;-90
2021/03/10 15:48:03;;;;;;;27.20;12.35;;;;;;;;;;6156066;23;20173;-90
2021/03/10 15:51:08;;;;;;;24.02;11.45;;;;;;;;;;6154015;23;20175;-88
2021/03/10 15:54:16;;;;;;;22.43;10.73;;;;;;;;;;6153809;23;20180;-89
2021/03/10 15:57:21;;;;;;;25.67;11.73;;;;;;;;;;6156874;23;20184;-88
2021/03/10 16:00:29;;;;;;;25.87;11.20;;;;;;;;;;6155158;23;20217;-89
2021/03/10 16:03:55;;;;;;;28.40;11.07;;;;;;;;;;6153586;23;20213;-89
2021/03/10 16:07:01;;;;;;;34.27;14.53;;;;;;;;;;6153962;23;20210;-88
2021/03/10 16:10:07;;;;;;;28.47;11.27;;;;;;;;;;6152859;23;20234;-88
2021/03/10 16:13:12;;;;;;;28.90;12.17;;;;;;;;;;6156592;23;20651;-91
2021/03/10 16:16:18;;;;;;;28.87;12.40;;;;;;;;;;6156836;23;20197;-87
2021/03/10 16:19:23;;;;;;;31.13;11.67;;;;;;;;;;6154234;23;20189;-90
2021/03/10 16:22:28;;;;;;;24.67;10.37;;;;;;;;;;6153815;23;20216;-89
2021/03/10 16:25:33;;;;;;;34.03;12.50;;;;;;;;;;6153152;23;20169;-88
2021/03/10 16:28:38;;;;;;;24.43;10.97;;;;;;;;;;6153202;23;20222;-88
2021/03/10 16:31:44;;;;;;;30.97;12.40;;;;;;;;;;6135556;23;20168;-88
2021/03/10 16:34:49;;;;;;;29.90;12.13;;;;;;;;;;6151949;23;20200;-88
2021/03/10 16:38:04;;;;;;;33.53;12.40;;;;;;;;;;6153787;23;20196;-91
2021/03/10 16:41:10;;;;;;;31.30;12.23;;;;;;;;;;6156913;23;20193;-89
2021/03/10 16:44:15;;;;;;;28.10;11.90;;;;;;;;;;6155984;23;20247;-88
2021/03/10 16:47:23;;;;;;;32.77;12.63;;;;;;;;;;6154585;23;20188;-91
2021/03/10 16:50:29;;;;;;;27.93;11.10;;;;;;;;;;6152347;23;20197;-89
2021/03/10 16:53:34;;;;;;;26.90;11.40;;;;;;;;;;6152664;23;20160;-90
2021/03/10 16:56:38;;;;;;;28.27;11.87;;;;;;;;;;6149568;23;20247;-88
2021/03/10 16:59:46;;;;;;;25.47;11.47;;;;;;;;;;6154917;23;20222;-87
2021/03/10 17:02:52;;;;;;;30.80;12.40;;;;;;;;;;6152204;23;20211;-90
2021/03/10 17:06:00;;;;;;;33.60;13.53;;;;;;;;;;6153793;23;20291;-91
2021/03/10 17:09:05;;;;;;;31.30;12.80;;;;;;;;;;6153765;23;20192;-88
2021/03/10 17:12:10;;;;;;;29.70;12.60;;;;;;;;;;6152757;23;20192;-90
2021/03/10 17:15:15;;;;;;;37.17;15.30;;;;;;;;;;6152412;23;20320;-90
2021/03/10 17:18:22;;;;;;;34.53;14.40;;;;;;;;;;6154221;23;20164;-89
2021/03/10 17:21:27;;;;;;;32.23;13.00;;;;;;;;;;6157824;23;20204;-90
2021/03/10 17:24:32;;;;;;;33.57;13.57;;;;;;;;;;6151440;23;20233;-90
2021/03/10 17:27:37;;;;;;;44.13;17.87;;;;;;;;;;6154758;23;20168;-91
2021/03/10 17:30:42;;;;;;;78.90;23.37;;;;;;;;;;6154652;23;20195;-88
2021/03/10 17:33:48;;;;;;;52.17;17.67;;;;;;;;;;6153668;23;20216;-89
2021/03/10 17:36:53;;;;;;;40.07;15.30;;;;;;;;;;6152270;23;20168;-91
2021/03/10 17:39:59;;;;;;;52.63;19.20;;;;;;;;;;6153383;23;20212;-90
2021/03/10 17:43:06;;;;;;;55.53;19.63;;;;;;;;;;6156438;23;20188;-89
2021/03/10 17:46:13;;;;;;;47.80;18.20;;;;;;;;;;6157255;23;20172;-91
2021/03/10 17:49:29;;;;;;;38.07;16.27;;;;;;;;;;6157451;23;20181;-92
2021/03/10 17:52:35;;;;;;;44.57;17.37;;;;;;;;;;6154755;23;20176;-93
2021/03/10 17:55:41;;;;;;;50.13;18.77;;;;;;;;;;6173605;23;20280;-92
2021/03/10 17:58:48;;;;;;;47.73;18.73;;;;;;;;;;6157549;23;20212;-91
2021/03/10 18:01:52;;;;;;;47.90;19.23;;;;;;;;;;6158121;23;20168;-88
2021/03/10 18:05:02;;;;;;;48.70;16.47;;;;;;;;;;6154319;23;20272;-91
2021/03/10 18:08:07;;;;;;;36.70;15.27;;;;;;;;;;6153141;23;20531;-88
2021/03/10 18:11:12;;;;;;;43.33;17.50;;;;;;;;;;6152792;23;20260;-91
2021/03/10 18:14:17;;;;;;;51.67;19.17;;;;;;;;;;6151066;23;20204;-91
2021/03/10 18:17:22;;;;;;;42.47;16.57;;;;;;;;;;6148234;23;20164;-89
2021/03/10 18:20:30;;;;;;;44.37;16.90;;;;;;;;;;6150595;23;20160;-90
2021/03/10 18:23:37;;;;;;;39.87;16.67;;;;;;;;;;6151609;23;20627;-89
2021/03/10 18:26:42;;;;;;;48.03;20.07;;;;;;;;;;6150658;23;20173;-90
2021/03/10 18:29:47;;;;;;;39.40;15.80;;;;;;;;;;6153039;23;20172;-91
2021/03/10 18:32:52;;;;;;;42.70;16.93;;;;;;;;;;6150144;23;20172;-88
2021/03/10 18:35:58;;;;;;;42.33;16.40;;;;;;;;;;6152494;23;20199;-90
2021/03/10 18:39:05;;;;;;;37.07;15.13;;;;;;;;;;6153888;23;20560;-90
2021/03/10 18:42:10;;;;;;;35.13;15.50;;;;;;;;;;6153223;23;20240;-89
2021/03/10 18:45:15;;;;;;;37.60;16.83;;;;;;;;;;6152913;23;20208;-91
2021/03/10 18:48:21;;;;;;;41.40;16.83;;;;;;;;;;6152670;23;20192;-91
2021/03/10 18:51:26;;;;;;;44.47;16.30;;;;;;;;;;6153770;23;20168;-92
2021/03/10 18:54:31;;;;;;;38.70;15.73;;;;;;;;;;6151091;23;20180;-90
2021/03/10 18:57:36;;;;;;;44.37;15.93;;;;;;;;;;6153099;23;20265;-90
2021/03/10 19:00:41;;;;;;;49.23;17.60;;;;;;;;;;6152508;23;20172;-90
2021/03/10 19:03:46;;;;;;;47.03;18.03;;;;;;;;;;6150328;23;20177;-89
2021/03/10 19:06:51;;;;;;;42.00;15.93;;;;;;;;;;6156033;23;20188;-89
2021/03/10 19:09:56;;;;;;;38.33;15.03;;;;;;;;;;6156340;23;20216;-89
2021/03/10 19:13:01;;;;;;;43.07;15.63;;;;;;;;;;6150134;23;20188;-91
2021/03/10 19:16:06;;;;;;;41.23;15.87;;;;;;;;;;6152943;23;20231;-90
2021/03/10 19:19:11;;;;;;;55.13;19.47;;;;;;;;;;6152122;23;20196;-90
2021/03/10 19:22:17;;;;;;;52.60;19.23;;;;;;;;;;6150107;23;20217;-90
2021/03/10 19:25:23;;;;;;;41.87;15.10;;;;;;;;;;6149732;23;20152;-90
2021/03/10 19:28:28;;;;;;;37.93;15.13;;;;;;;;;;6133258;23;20172;-87
2021/03/10 19:31:33;;;;;;;43.93;15.83;;;;;;;;;;6150537;23;20176;-89
2021/03/10 19:34:37;;;;;;;37.10;15.80;;;;;;;;;;6150943;23;20197;-89
2021/03/10 19:37:43;;;;;;;45.83;17.00;;;;;;;;;;6150405;23;20192;-90
2021/03/10 19:40:48;;;;;;;43.07;16.73;;;;;;;;;;6149267;23;20176;-90
2021/03/10 19:43:52;;;;;;;41.83;16.50;;;;;;;;;;6149259;23;20172;-89
2021/03/10 19:46:57;;;;;;;43.40;16.10;;;;;;;;;;6147818;23;20167;-90
2021/03/10 19:50:02;;;;;;;47.93;16.90;;;;;;;;;;6148890;23;20164;-89
2021/03/10 19:53:07;;;;;;;44.47;16.73;;;;;;;;;;6151428;23;20176;-89
2021/03/10 19:56:11;;;;;;;48.40;16.57;;;;;;;;;;6149295;23;20196;-89
2021/03/10 19:59:16;;;;;;;39.87;16.07;;;;;;;;;;6150404;23;20193;-89
2021/03/10 20:02:21;;;;;;;40.40;15.77;;;;;;;;;;6150733;23;20185;-90
2021/03/10 20:05:25;;;;;;;44.07;15.17;;;;;;;;;;6149332;23;20250;-88
2021/03/10 20:08:31;;;;;;;45.53;16.70;;;;;;;;;;6151672;23;20172;-89
2021/03/10 20:11:36;;;;;;;43.67;16.27;;;;;;;;;;6153315;23;20221;-91
2021/03/10 20:14:41;;;;;;;48.07;17.13;;;;;;;;;;6148642;23;20709;-92
2021/03/10 20:17:46;;;;;;;45.80;17.87;;;;;;;;;;6149935;23;20184;-87
2021/03/10 20:20:51;;;;;;;46.37;18.00;;;;;;;;;;6150960;23;20168;-90
2021/03/10 20:23:56;;;;;;;46.67;16.50;;;;;;;;;;6151257;23;20224;-89
2021/03/10 20:27:01;;;;;;;47.47;16.70;;;;;;;;;;6150562;23;20525;-89
2021/03/10 20:30:07;;;;;;;45.03;17.33;;;;;;;;;;6149546;23;20169;-89
2021/03/10 20:33:11;;;;;;;43.17;16.70;;;;;;;;;;6147953;23;20511;-90
2021/03/10 20:36:16;;;;;;;44.83;17.27;;;;;;;;;;6146597;23;20212;-88
2021/03/10 20:39:26;;;;;;;45.37;16.67;;;;;;;;;;6149054;23;20300;-88
2021/03/10 20:42:31;;;;;;;47.47;18.23;;;;;;;;;;6153060;23;20169;-89
2021/03/10 20:45:36;;;;;;;45.33;17.97;;;;;;;;;;6150793;23;20169;-89
2021/03/10 20:48:40;;;;;;;43.80;17.03;;;;;;;;;;6152581;23;20503;-89
2021/03/10 20:51:45;;;;;;;51.13;17.40;;;;;;;;;;6154077;23;20224;-89
2021/03/10 20:54:52;;;;;;;45.20;17.53;;;;;;;;;;6153639;23;20601;-89
2021/03/10 20:57:59;;;;;;;45.70;16.93;;;;;;;;;;6151834;23;20177;-89
2021/03/10 21:01:04;;;;;;;42.57;17.53;;;;;;;;;;6152070;23;20192;-89
2021/03/10 21:04:09;;;;;;;45.37;16.47;;;;;;;;;;6152151;23;20180;-90
2021/03/10 21:07:14;;;;;;;43.00;17.37;;;;;;;;;;6151000;23;20305;-89
2021/03/10 21:10:20;;;;;;;43.63;16.17;;;;;;;;;;6147424;23;20176;-87
2021/03/10 21:13:24;;;;;;;43.13;16.43;;;;;;;;;;6148782;23;20246;-90
2021/03/10 21:16:29;;;;;;;46.53;17.23;;;;;;;;;;6148512;23;20191;-90
2021/03/10 21:19:33;;;;;;;48.90;16.20;;;;;;;;;;6149087;23;20676;-90
2021/03/10 21:22:38;;;;;;;48.77;17.33;;;;;;;;;;6149192;23;20512;-89
2021/03/10 21:25:43;;;;;;;45.97;16.73;;;;;;;;;;6149159;23;20667;-91
2021/03/10 21:28:50;;;;;;;41.70;16.90;;;;;;;;;;6149823;23;20235;-87
2021/03/10 21:31:54;;;;;;;46.27;17.60;;;;;;;;;;6148436;23;20224;-89
2021/03/10 21:34:59;;;;;;;48.33;19.07;;;;;;;;;;6150662;23;20184;-89
2021/03/10 21:38:04;;;;;;;49.23;19.60;;;;;;;;;;6150410;23;20200;-91
2021/03/10 21:41:09;;;;;;;56.77;22.23;;;;;;;;;;6157102;23;20172;-90
2021/03/10 21:44:14;;;;;;;54.57;21.47;;;;;;;;;;6157477;23;20193;-90
2021/03/10 21:47:19;;;;;;;47.73;19.33;;;;;;;;;;6152187;23;20564;-90
2021/03/10 21:50:24;;;;;;;44.30;16.70;;;;;;;;;;6155461;23;20176;-90
2021/03/10 21:53:28;;;;;;;47.93;17.47;;;;;;;;;;6155973;23;20234;-89
2021/03/10 21:56:35;;;;;;;50.33;18.23;;;;;;;;;;6152964;23;20211;-91
2021/03/10 21:59:39;;;;;;;45.23;17.50;;;;;;;;;;6151931;23;20176;-89
2021/03/10 22:02:44;;;;;;;45.83;17.03;;;;;;;;;;6152379;23;20160;-90
2021/03/10 22:05:50;;;;;;;44.50;17.70;;;;;;;;;;6153498;23;20164;-87
2021/03/10 22:08:55;;;;;;;52.50;16.63;;;;;;;;;;6151580;23;20184;-89
2021/03/10 22:12:02;;;;;;;41.37;16.60;;;;;;;;;;6151135;23;20300;-90
2021/03/10 22:15:07;;;;;;;42.83;16.53;;;;;;;;;;6148618;23;20260;-90
2021/03/10 22:18:11;;;;;;;41.97;16.90;;;;;;;;;;6150809;23;20173;-90
2021/03/10 22:21:16;;;;;;;49.47;17.03;;;;;;;;;;6147437;23;20257;-88
2021/03/10 22:24:21;;;;;;;46.13;17.13;;;;;;;;;;6145427;23;20172;-89
2021/03/10 22:27:27;;;;;;;44.50;16.70;;;;;;;;;;6146238;23;20172;-89
2021/03/10 22:30:31;;;;;;;49.30;17.57;;;;;;;;;;6145846;23;20176;-90
2021/03/10 22:33:36;;;;;;;47.00;18.17;;;;;;;;;;6145756;23;20514;-89
2021/03/10 22:36:40;;;;;;;47.20;18.17;;;;;;;;;;6145106;23;20193;-88
2021/03/10 22:39:44;;;;;;;47.87;17.13;;;;;;;;;;6145943;23;20244;-90
2021/03/10 22:42:50;;;;;;;48.63;18.00;;;;;;;;;;6146436;23;20169;-90
2021/03/10 22:45:55;;;;;;;47.70;16.80;;;;;;;;;;6148512;23;20208;-91
2021/03/10 22:49:00;;;;;;;58.40;18.00;;;;;;;;;;6151441;23;20173;-87
2021/03/10 22:52:05;;;;;;;47.43;17.83;;;;;;;;;;6152050;23;20172;-90
2021/03/10 22:55:10;;;;;;;49.40;18.07;;;;;;;;;;6149228;23;20259;-88
2021/03/10 22:58:15;;;;;;;51.90;17.43;;;;;;;;;;6147775;23;20289;-89
2021/03/10 23:01:24;;;;;;;47.47;17.53;;;;;;;;;;6146994;23;20171;-90
2021/03/10 23:04:28;;;;;;;47.97;17.63;;;;;;;;;;6151092;23;20589;-89
2021/03/10 23:07:33;;;;;;;45.20;16.90;;;;;;;;;;6147758;23;20192;-88
2021/03/10 23:10:37;;;;;;;48.53;17.97;;;;;;;;;;6148020;23;20226;-90
2021/03/10 23:13:43;;;;;;;51.37;17.33;;;;;;;;;;6146338;23;20204;-90
2021/03/10 23:16:47;;;;;;;46.50;17.17;;;;;;;;;;6147536;23;20648;-88
2021/03/10 23:19:51;;;;;;;47.77;16.57;;;;;;;;;;6145635;23;20224;-91
2021/03/10 23:22:56;;;;;;;46.57;16.67;;;;;;;;;;6145056;23;20177;-91
2021/03/10 23:26:01;;;;;;;49.27;17.50;;;;;;;;;;6144808;23;20243;-91
2021/03/10 23:29:06;;;;;;;49.20;17.90;;;;;;;;;;6148622;23;20172;-90
2021/03/10 23:32:11;;;;;;;50.87;17.87;;;;;;;;;;6147625;23;20511;-88
2021/03/10 23:35:16;;;;;;;42.33;16.53;;;;;;;;;;6146900;23;20224;-90
2021/03/10 23:38:20;;;;;;;43.87;16.63;;;;;;;;;;6147900;23;20172;-89
2021/03/10 23:41:25;;;;;;;52.03;17.33;;;;;;;;;;6148895;23;20195;-88
2021/03/10 23:44:30;;;;;;;46.20;16.97;;;;;;;;;;6148525;23;20616;-87
2021/03/10 23:47:36;;;;;;;50.97;19.53;;;;;;;;;;6149854;23;20173;-88
2021/03/10 23:50:42;;;;;;;51.30;18.50;;;;;;;;;;6147008;23;20176;-90
2021/03/10 23:53:46;;;;;;;46.83;16.73;;;;;;;;;;6146117;23;20172;-90
2021/03/10 23:56:51;;;;;;;46.07;16.63;;;;;;;;;;6145268;23;20225;-89
2021/03/10 23:59:56;;;;;;;46.80;18.50;;;;;;;;;;6147260;23;20180;-88
